KCNY/CNY METAR and TAF weather

Enter ICAO airport designator
Station Type Date Time Source
KCNY METAR 2024/02/26 16:53 UTC NOAA

KCNY 261653Z AUTO 21017G23KT 10SM CLR 14/M03 A2986 RMK AO2 SLP082 T01441033


Station Type Date Time Source
KCNY Decoded METAR 2024/02/26 16:53 UTC NOAA

MOAB CANYONLANDS FIELD, UT, United States (KCNY) 38-46N 109-45W 1390M
Feb 26, 2024 - 11:53 AM EST / 2024.02.26 1653 UTC
Wind: from the SSW (210 degrees) at 20 MPH (17 KT) gusting to 26 MPH (23 KT):0
Visibility: 10 mile(s):0
Sky conditions: clear
Temperature: 57.9 F (14.4 C)
Dew Point: 26.1 F (-3.3 C)
Relative Humidity: 29%
Pressure (altimeter): 29.86 in. Hg (1011 hPa)
ob: KCNY 261653Z AUTO 21017G23KT 10SM CLR 14/M03 A2986 RMK AO2 SLP082 T01441033
cycle: 17

Station Type Date Time Source
KCNY TAF 2024/02/26 18:30 UTC NOAA